Meteo Giornale » Osservazioni meteo Italia » Catania-Sigonella

ore: 15:55 - Osservazioni Meteo Catania-Sigonella
Lat. 37° 24' N Lon. 14° 55' E Alt. 22 metri s.l.m.

poco_nuvoloso Europe/Rome

30 °C

Poco Nuvoloso

Temp. 24 Ore

16 °C

30 °C

Est

25.9 Km/h

Dew point 7 °C

Umidità 23 %

Visibilità  10 Km

Il sole sorge alle ore 05:40

Il sole tramonta alle ore 20:14

Data e Ora Cielo e Fenomeni T °C DP °C Um. % Pres. hPa Vis. km Vento km/h
Oggi h: 15:55 poco_nuvoloso Poco Nuvoloso 30 7 23 1017 10 E 25.9
Oggi h: 14:55 poco_nuvoloso Poco Nuvoloso 30 7 23 1017 10 E 25.9
Oggi h: 13:55 nuvoloso Nuvoloso 30 6 22 1017 10 E 27.8
Oggi h: 12:55 nuvoloso Nuvoloso 30 3 17 1018 10 E/NE 18.5
Oggi h: 11:55 poco_nuvoloso Poco Nuvoloso 30 7 23 1018 10 N/NO 9.3
Oggi h: 10:55 poco_nuvoloso Poco Nuvoloso 29 7 25 1018 10 S/SE 7.4
Oggi h: 09:55 sereno Sereno 26 9 34 1018 10 N 5.5
Oggi h: 08:55 sereno Sereno 24 11 43 1018 10 O 7.4
Oggi h: 07:55 sereno Sereno 20 13 64 1018 10 O/NO 13
Oggi h: 06:55 sereno Sereno 18 13 72 1018 10 O 11.1
Oggi h: 05:55 sereno Sereno 17 16 93 1018 10 O 9.3
Oggi h: 04:55 sereno Sereno 16 16 100 1018 10 O 14.8
Oggi h: 03:55 sereno Sereno 18 16 88 1018 10 O 9.3
Oggi h: 02:55 sereno Sereno 18 16 88 1017 10 O/NO 11.1
Oggi h: 01:55 sereno Sereno 18 16 88 1018 10 O 11.1
Oggi h: 00:55 sereno Sereno 18 14 77 1018 10 O 9.3
Ieri h: 23:55 sereno Sereno 19 14 72 1018 10 O 9.3
Ieri h: 21:55 nuvoloso Nuvoloso 21 13 60 1017 10 S/SE 11.1
Ieri h: 20:55 nuvoloso Nuvoloso 23 11 46 1017 10 S/SE 11.1
Ieri h: 19:55 nuvoloso Nuvoloso 24 9 38 1016 10 E/SE 16.7
Ieri h: 18:55 nuvoloso Nuvoloso 25 10 38 1016 10 E 24
Ieri h: 17:55 nuvoloso Nuvoloso 26 10 36 1016 10 E 27.8
Ieri h: 16:55 nuvoloso Nuvoloso 27 10 34 1016 10 E 27.8